Time;durP1;ratioP1;P1;durP2;ratioP2;P2;SDS_P1;SDS_P2;PMS_P1;PMS_P2;Temp;Humidity;BMP_temperature;BMP_pressure;BME280_temperature;BME280_humidity;BME280_pressure;Samples;Min_cycle;Max_cycle;Signal;HPM_P1;HPM_P2
2022/07/16 00:02:38;;;;;;;1.65;0.93;;;17.80;87.20;;;;;;5013322;28;20540;-73
2022/07/16 00:05:05;;;;;;;2.50;0.90;;;17.80;87.60;;;;;;5012744;28;20079;-73
2022/07/16 00:07:31;;;;;;;5.70;1.25;;;17.80;87.60;;;;;;5012394;28;20253;-75
2022/07/16 00:09:58;;;;;;;1.75;0.90;;;17.90;86.90;;;;;;5012641;28;20030;-73
2022/07/16 00:12:24;;;;;;;3.05;0.90;;;17.90;86.80;;;;;;5012516;28;20026;-73
2022/07/16 00:14:50;;;;;;;6.60;0.98;;;17.90;87.10;;;;;;5011785;28;20041;-73
2022/07/16 00:17:16;;;;;;;0.98;0.80;;;17.80;86.60;;;;;;5011502;28;20026;-75
2022/07/16 00:19:42;;;;;;;2.22;0.80;;;17.90;86.50;;;;;;5012517;28;20022;-75
2022/07/16 00:22:08;;;;;;;3.13;1.08;;;17.90;86.50;;;;;;5012415;28;20053;-74
2022/07/16 00:24:33;;;;;;;3.40;1.20;;;17.90;86.50;;;;;;5012371;28;20049;-75
2022/07/16 00:26:59;;;;;;;2.40;1.20;;;17.90;86.40;;;;;;5012312;28;20049;-75
2022/07/16 00:29:25;;;;;;;3.33;1.02;;;17.90;86.50;;;;;;5012638;28;20030;-75
2022/07/16 00:31:51;;;;;;;1.45;0.85;;;18.00;86.10;;;;;;5012524;28;20380;-75
2022/07/16 00:34:17;;;;;;;2.25;0.90;;;18.00;86.10;;;;;;5012154;28;20457;-75
2022/07/16 00:36:44;;;;;;;1.85;0.80;;;18.00;86.20;;;;;;5011989;28;20049;-76
2022/07/16 00:39:10;;;;;;;1.83;0.68;;;18.00;86.00;;;;;;5010705;28;20310;-75
2022/07/16 00:41:37;;;;;;;3.10;0.75;;;18.10;85.90;;;;;;5012320;28;20065;-74
2022/07/16 00:44:06;;;;;;;2.25;0.95;;;18.00;85.70;;;;;;5010814;28;20040;-75
2022/07/16 00:46:33;;;;;;;3.60;0.70;;;18.10;85.70;;;;;;5011849;28;20026;-76
2022/07/16 00:48:59;;;;;;;1.20;0.77;;;18.10;85.60;;;;;;5011990;28;20037;-75
2022/07/16 00:51:26;;;;;;;0.85;0.57;;;18.10;85.60;;;;;;5011838;28;20026;-74
2022/07/16 00:53:53;;;;;;;1.02;0.60;;;18.00;85.50;;;;;;5011601;28;20080;-73
2022/07/16 00:56:19;;;;;;;2.85;0.73;;;18.10;85.50;;;;;;5012000;28;20040;-74
2022/07/16 00:58:46;;;;;;;0.50;0.40;;;18.20;85.50;;;;;;5012039;28;20030;-75
2022/07/16 01:01:12;;;;;;;1.65;0.63;;;18.10;85.50;;;;;;5010681;28;20392;-75
2022/07/16 01:03:40;;;;;;;2.72;0.93;;;18.10;85.50;;;;;;5011923;28;20058;-77
2022/07/16 01:06:07;;;;;;;1.10;0.60;;;18.00;85.80;;;;;;5011878;28;20456;-74
2022/07/16 01:08:34;;;;;;;1.40;0.60;;;18.00;86.10;;;;;;5012081;28;20360;-75
2022/07/16 01:11:04;;;;;;;2.45;0.98;;;18.00;86.30;;;;;;5010750;28;20062;-74
2022/07/16 01:13:31;;;;;;;4.63;1.40;;;17.90;86.70;;;;;;5011774;28;20126;-75
2022/07/16 01:15:56;;;;;;;2.40;1.00;;;18.00;86.80;;;;;;5011625;28;20034;-75
2022/07/16 01:18:22;;;;;;;2.88;0.90;;;17.90;87.40;;;;;;5011509;28;20458;-75
2022/07/16 01:20:48;;;;;;;3.88;0.80;;;18.00;87.70;;;;;;5011864;28;20356;-76
2022/07/16 01:23:23;;;;;;;2.08;1.02;;;17.90;88.00;;;;;;5011557;28;20095;-74
2022/07/16 01:25:50;;;;;;;3.05;1.23;;;17.90;88.70;;;;;;5010115;28;20096;-74
2022/07/16 01:28:16;;;;;;;3.50;1.25;;;18.00;89.20;;;;;;5011428;28;20464;-75
2022/07/16 01:30:42;;;;;;;8.52;4.13;;;18.00;89.80;;;;;;5011433;28;20041;-75
2022/07/16 01:33:38;;;;;;;3.88;2.75;;;18.00;90.00;;;;;;5010122;28;20036;-75
2022/07/16 01:36:07;;;;;;;2.55;1.30;;;18.00;89.90;;;;;;5020434;28;20037;-74
2022/07/16 01:38:34;;;;;;;2.80;1.20;;;18.00;89.40;;;;;;5031115;28;20026;-74
2022/07/16 01:40:59;;;;;;;1.55;0.80;;;18.00;89.40;;;;;;5030686;28;20025;-75
2022/07/16 01:43:28;;;;;;;1.75;0.93;;;18.00;89.10;;;;;;5030930;28;20371;-74
2022/07/16 01:45:55;;;;;;;1.33;0.70;;;18.00;89.20;;;;;;5030844;28;20035;-74
2022/07/16 01:48:21;;;;;;;3.28;1.30;;;18.00;89.10;;;;;;5030974;28;20060;-75
2022/07/16 01:50:47;;;;;;;3.33;0.98;;;18.00;89.30;;;;;;5030619;28;20366;-75
2022/07/16 01:53:13;;;;;;;4.85;1.42;;;18.00;89.20;;;;;;5029771;28;20060;-74
2022/07/16 01:55:40;;;;;;;3.75;1.00;;;18.00;89.40;;;;;;5030738;28;20053;-74
2022/07/16 01:58:08;;;;;;;1.67;1.02;;;18.10;89.20;;;;;;5030792;28;20037;-75
2022/07/16 02:00:36;;;;;;;4.15;1.00;;;18.10;89.20;;;;;;5030814;28;20374;-74
2022/07/16 02:03:02;;;;;;;1.98;1.20;;;18.10;89.50;;;;;;5030901;28;20025;-74
2022/07/16 02:05:28;;;;;;;3.67;1.27;;;18.10;89.40;;;;;;5030416;28;20411;-74
2022/07/16 02:07:54;;;;;;;3.97;1.27;;;18.10;89.50;;;;;;5029468;28;20021;-74
2022/07/16 02:10:19;;;;;;;5.57;1.25;;;18.10;89.20;;;;;;5030687;28;20490;-74
2022/07/16 02:12:45;;;;;;;2.05;1.20;;;18.10;89.10;;;;;;5030401;28;20482;-75
2022/07/16 02:15:12;;;;;;;2.40;1.00;;;18.20;89.40;;;;;;5030389;28;20025;-75
2022/07/16 02:17:38;;;;;;;2.35;1.00;;;18.20;89.60;;;;;;5030920;28;20013;-75
2022/07/16 02:20:06;;;;;;;2.03;0.90;;;18.10;89.90;;;;;;5030232;28;20064;-75
2022/07/16 02:22:32;;;;;;;2.57;1.20;;;18.10;90.10;;;;;;5030118;28;20033;-76
2022/07/16 02:24:57;;;;;;;4.13;1.42;;;18.10;90.00;;;;;;5030192;28;20056;-75
2022/07/16 02:27:23;;;;;;;1.98;0.93;;;18.00;90.10;;;;;;5029135;28;20025;-75
2022/07/16 02:29:49;;;;;;;8.68;1.30;;;18.00;90.10;;;;;;5030672;28;20122;-75
2022/07/16 02:32:15;;;;;;;2.30;1.20;;;18.00;90.30;;;;;;5030228;28;20137;-75
2022/07/16 02:34:41;;;;;;;1.35;1.20;;;18.00;90.30;;;;;;5030316;28;20033;-76
2022/07/16 02:37:07;;;;;;;3.20;1.15;;;18.00;90.10;;;;;;5030212;28;20036;-75
2022/07/16 02:39:32;;;;;;;2.05;1.52;;;18.10;90.20;;;;;;5030126;28;20034;-75
2022/07/16 02:41:59;;;;;;;1.83;1.02;;;18.00;90.30;;;;;;5030265;28;20122;-74
2022/07/16 02:44:25;;;;;;;7.80;1.38;;;18.00;90.20;;;;;;5030937;28;20144;-76
2022/07/16 02:46:50;;;;;;;1.55;0.90;;;18.10;90.20;;;;;;5030139;28;20188;-75
2022/07/16 02:49:16;;;;;;;4.32;1.30;;;18.10;90.00;;;;;;5030055;28;20038;-75
2022/07/16 02:51:42;;;;;;;5.13;1.13;;;18.10;90.00;;;;;;5029898;28;20033;-75
2022/07/16 02:54:07;;;;;;;4.22;1.60;;;18.10;89.90;;;;;;5029871;28;20363;-74
2022/07/16 02:56:33;;;;;;;2.72;1.17;;;18.20;89.80;;;;;;5030495;28;20119;-75
2022/07/16 02:58:59;;;;;;;5.97;1.48;;;18.10;89.60;;;;;;5030015;28;20344;-75
2022/07/16 03:01:25;;;;;;;2.95;1.20;;;18.10;89.60;;;;;;5031662;28;20397;-74
2022/07/16 03:03:51;;;;;;;9.45;1.38;;;18.10;89.40;;;;;;5033736;28;20033;-74
2022/07/16 03:06:17;;;;;;;1.75;1.13;;;18.10;89.20;;;;;;5033713;28;20041;-74
2022/07/16 03:08:43;;;;;;;1.52;0.98;;;18.20;89.20;;;;;;5034027;28;20350;-76
2022/07/16 03:11:09;;;;;;;1.80;0.85;;;18.20;89.20;;;;;;5033946;28;20025;-74
2022/07/16 03:13:34;;;;;;;3.28;1.70;;;18.20;89.10;;;;;;5033644;28;20044;-74
2022/07/16 03:16:00;;;;;;;6.93;1.30;;;18.10;89.20;;;;;;5033655;28;20037;-74
2022/07/16 03:18:25;;;;;;;2.08;1.30;;;18.10;88.90;;;;;;5033373;28;20033;-75
2022/07/16 03:20:51;;;;;;;4.70;1.10;;;18.10;88.90;;;;;;5033640;28;20021;-76
2022/07/16 03:23:17;;;;;;;5.63;1.27;;;18.10;88.90;;;;;;5032382;28;20234;-74
2022/07/16 03:25:43;;;;;;;2.65;1.20;;;18.10;88.80;;;;;;5032294;28;20030;-74
2022/07/16 03:28:09;;;;;;;12.90;1.83;;;18.10;88.80;;;;;;5033280;28;20041;-74
2022/07/16 03:30:35;;;;;;;1.65;1.20;;;18.10;88.70;;;;;;5033123;28;20086;-75
2022/07/16 03:33:01;;;;;;;4.40;1.60;;;18.10;88.60;;;;;;5031882;28;20028;-75
2022/07/16 03:35:28;;;;;;;3.30;1.35;;;18.10;88.70;;;;;;5033549;28;20033;-74
2022/07/16 03:40:38;;;;;;;3.90;1.23;;;18.00;88.90;;;;;;5032924;28;20057;-74
2022/07/16 03:43:04;;;;;;;5.93;1.30;;;18.10;88.80;;;;;;5032839;28;20033;-73
2022/07/16 03:45:29;;;;;;;1.67;1.02;;;18.20;88.80;;;;;;5033068;28;20044;-74
2022/07/16 03:47:55;;;;;;;3.85;0.98;;;18.10;89.10;;;;;;5031731;28;20041;-74
2022/07/16 03:50:21;;;;;;;4.28;1.70;;;18.10;89.10;;;;;;5033357;28;20022;-74
2022/07/16 03:52:47;;;;;;;5.55;1.33;;;18.10;89.10;;;;;;5032819;28;20038;-74
2022/07/16 03:55:14;;;;;;;5.72;1.42;;;18.10;89.00;;;;;;5031382;28;20514;-75
2022/07/16 03:57:40;;;;;;;2.75;1.27;;;18.00;89.20;;;;;;5032809;28;20042;-75
2022/07/16 04:00:06;;;;;;;6.25;1.70;;;18.00;89.40;;;;;;5032654;28;20213;-73
2022/07/16 04:02:32;;;;;;;2.65;1.15;;;18.10;89.40;;;;;;5032966;28;20033;-74
2022/07/16 04:04:58;;;;;;;3.38;1.23;;;18.00;89.50;;;;;;5031582;28;20034;-73
2022/07/16 04:07:23;;;;;;;2.42;1.10;;;18.00;89.80;;;;;;5032335;28;20026;-75
2022/07/16 04:09:49;;;;;;;3.75;1.50;;;18.00;89.90;;;;;;5032642;28;20038;-74
2022/07/16 04:12:14;;;;;;;1.52;1.02;;;18.00;90.00;;;;;;5032178;28;20195;-75
2022/07/16 04:14:40;;;;;;;3.35;1.20;;;18.00;90.50;;;;;;5032919;28;20095;-75
2022/07/16 04:17:06;;;;;;;2.50;1.20;;;18.00;90.40;;;;;;5033012;28;20040;-74
2022/07/16 04:19:31;;;;;;;3.63;1.50;;;18.00;91.20;;;;;;5032345;28;20033;-74
2022/07/16 04:21:57;;;;;;;2.70;1.13;;;18.00;91.80;;;;;;5032178;28;20041;-74
2022/07/16 04:24:23;;;;;;;3.13;1.60;;;17.90;92.30;;;;;;5032528;28;20115;-74
2022/07/16 04:26:49;;;;;;;5.25;1.70;;;17.90;93.00;;;;;;5032901;28;20032;-74
2022/07/16 04:29:14;;;;;;;4.30;1.77;;;17.90;93.60;;;;;;5032570;28;20038;-75
2022/07/16 04:31:40;;;;;;;7.32;3.05;;;17.70;94.10;;;;;;5032409;28;20372;-75
2022/07/16 04:34:05;;;;;;;2.83;1.60;;;17.60;94.70;;;;;;5032260;28;20057;-74
2022/07/16 04:36:31;;;;;;;4.78;1.67;;;17.60;95.50;;;;;;5032183;28;20425;-74
2022/07/16 04:38:57;;;;;;;3.65;1.75;;;17.60;95.60;;;;;;5032094;28;20363;-75
2022/07/16 04:41:23;;;;;;;4.30;2.13;;;17.60;96.10;;;;;;5032705;28;20033;-75
2022/07/16 04:43:48;;;;;;;5.10;2.03;;;17.60;96.10;;;;;;5031141;28;20036;-76
2022/07/16 04:46:14;;;;;;;10.98;2.03;;;17.50;96.40;;;;;;5030812;28;20053;-76
2022/07/16 04:48:40;;;;;;;2.88;1.60;;;17.50;96.70;;;;;;5030706;28;20040;-75
2022/07/16 04:51:06;;;;;;;4.80;2.28;;;17.40;97.00;;;;;;5031838;28;20079;-75
2022/07/16 04:53:35;;;;;;;4.10;2.00;;;17.50;97.30;;;;;;5032411;28;20017;-75
2022/07/16 04:56:00;;;;;;;6.10;1.88;;;17.40;97.20;;;;;;5031658;28;20072;-76
2022/07/16 04:58:26;;;;;;;3.42;1.67;;;17.30;97.80;;;;;;5030502;28;20471;-75
2022/07/16 05:00:52;;;;;;;3.17;1.60;;;17.40;98.40;;;;;;5031695;28;20107;-74
2022/07/16 05:03:17;;;;;;;4.72;1.63;;;17.20;98.70;;;;;;5031760;28;20026;-75
2022/07/16 05:05:43;;;;;;;3.40;1.60;;;17.10;99.00;;;;;;5032165;28;20049;-75
2022/07/16 05:08:10;;;;;;;1.83;1.52;;;17.00;99.20;;;;;;5031550;28;20026;-74
2022/07/16 05:10:36;;;;;;;3.47;2.00;;;16.80;99.80;;;;;;5031606;28;20060;-74
2022/07/16 05:13:02;;;;;;;5.40;1.88;;;16.70;99.90;;;;;;5031735;28;20033;-75
2022/07/16 05:15:29;;;;;;;5.55;1.73;;;16.70;99.90;;;;;;5031359;28;20022;-76
2022/07/16 05:17:55;;;;;;;7.55;1.92;;;16.70;99.90;;;;;;5031267;28;20341;-74
2022/07/16 05:20:21;;;;;;;5.50;1.90;;;16.70;99.90;;;;;;5031934;28;20033;-75
2022/07/16 05:22:47;;;;;;;3.30;1.85;;;16.80;99.90;;;;;;5012873;28;20052;-75
2022/07/16 05:25:14;;;;;;;3.80;2.38;;;16.80;99.90;;;;;;5026846;28;20627;-75
2022/07/16 05:27:40;;;;;;;5.68;2.53;;;16.70;99.90;;;;;;5012334;28;20095;-75
2022/07/16 05:30:06;;;;;;;4.18;2.15;;;16.80;99.90;;;;;;5012558;28;20030;-74
2022/07/16 05:32:32;;;;;;;3.80;2.13;;;16.70;99.90;;;;;;5012502;28;20171;-74
2022/07/16 05:34:58;;;;;;;6.82;2.50;;;16.80;99.90;;;;;;5011891;28;20046;-75
2022/07/16 05:37:23;;;;;;;5.15;2.38;;;16.80;99.90;;;;;;5011974;28;20113;-75
2022/07/16 05:39:49;;;;;;;4.57;2.55;;;16.70;99.90;;;;;;5011912;28;20372;-75
2022/07/16 05:42:14;;;;;;;5.28;2.53;;;16.80;99.90;;;;;;5010860;28;20177;-75
2022/07/16 05:44:40;;;;;;;4.07;2.72;;;16.90;99.90;;;;;;5012673;28;20095;-75
2022/07/16 05:47:06;;;;;;;4.47;2.45;;;16.80;99.90;;;;;;5027105;28;20104;-77
2022/07/16 05:49:32;;;;;;;5.32;2.83;;;16.70;99.90;;;;;;5011849;28;20357;-75
2022/07/16 05:51:58;;;;;;;4.60;2.40;;;16.60;99.90;;;;;;5010583;28;20025;-75
2022/07/16 05:54:23;;;;;;;6.30;2.85;;;16.80;99.90;;;;;;5011597;28;20034;-75
2022/07/16 05:56:49;;;;;;;4.55;2.90;;;16.90;99.90;;;;;;5012372;28;20306;-74
2022/07/16 05:59:15;;;;;;;5.45;2.80;;;16.90;99.90;;;;;;5011466;28;20033;-73
2022/07/16 06:01:41;;;;;;;5.22;2.85;;;16.80;99.90;;;;;;5021719;28;20104;-74
2022/07/16 06:04:07;;;;;;;2.95;2.45;;;16.80;99.90;;;;;;5029706;28;20037;-78
2022/07/16 06:06:33;;;;;;;5.40;3.15;;;16.90;99.90;;;;;;5030867;28;20107;-78
2022/07/16 06:08:58;;;;;;;3.20;2.35;;;16.70;99.90;;;;;;5030673;28;20029;-76
2022/07/16 06:11:25;;;;;;;4.13;2.63;;;16.90;99.90;;;;;;5031190;28;20344;-77
2022/07/16 06:13:51;;;;;;;7.40;2.97;;;17.10;99.90;;;;;;5029720;28;20053;-80
2022/07/16 06:16:18;;;;;;;3.58;2.47;;;17.10;99.90;;;;;;5031027;28;20049;-79
2022/07/16 06:18:44;;;;;;;7.95;3.08;;;17.10;99.90;;;;;;5030790;28;20099;-77
2022/07/16 06:21:10;;;;;;;4.20;2.95;;;17.30;99.90;;;;;;5030468;28;20041;-79
2022/07/16 06:23:35;;;;;;;5.82;2.78;;;17.10;99.90;;;;;;5031063;28;20067;-79
2022/07/16 06:26:01;;;;;;;6.50;3.00;;;17.20;99.90;;;;;;5029726;28;20308;-77
2022/07/16 06:28:28;;;;;;;5.70;2.42;;;17.10;99.90;;;;;;5030676;28;20112;-78
2022/07/16 06:30:54;;;;;;;4.20;2.40;;;17.20;99.90;;;;;;5030827;28;20030;-78
2022/07/16 06:33:19;;;;;;;3.45;2.58;;;17.20;99.90;;;;;;5029672;28;20037;-78
2022/07/16 06:35:45;;;;;;;4.63;2.58;;;17.30;99.90;;;;;;5031666;28;20100;-76
2022/07/16 06:38:11;;;;;;;2.38;2.05;;;17.30;99.90;;;;;;5034509;28;20038;-78
2022/07/16 06:40:41;;;;;;;4.80;2.55;;;17.20;99.90;;;;;;5034276;28;20456;-86
2022/07/16 06:43:07;;;;;;;4.88;2.30;;;17.20;99.90;;;;;;5034366;28;20038;-75
2022/07/16 06:45:33;;;;;;;4.18;2.20;;;17.20;99.90;;;;;;5034574;28;20403;-79
2022/07/16 06:47:59;;;;;;;3.75;1.95;;;17.40;99.90;;;;;;5034160;28;20407;-79
2022/07/16 06:50:25;;;;;;;3.85;1.75;;;17.50;99.90;;;;;;5034545;28;20129;-78
2022/07/16 06:52:51;;;;;;;3.55;2.00;;;17.50;99.90;;;;;;5034269;28;20272;-78
2022/07/16 06:55:17;;;;;;;3.35;1.60;;;17.50;99.90;;;;;;5034172;28;20068;-79
2022/07/16 06:57:42;;;;;;;4.38;1.83;;;17.40;99.90;;;;;;5034270;28;20030;-79
2022/07/16 07:00:09;;;;;;;3.22;1.88;;;17.50;99.90;;;;;;5033998;28;20079;-77
2022/07/16 07:02:35;;;;;;;5.80;1.55;;;17.60;99.90;;;;;;5034280;28;20049;-77
2022/07/16 07:05:00;;;;;;;3.83;1.80;;;17.50;99.50;;;;;;5020948;28;20424;-77
2022/07/16 07:07:26;;;;;;;4.55;1.75;;;17.60;99.60;;;;;;5014667;28;20034;-77
2022/07/16 07:09:52;;;;;;;4.95;1.77;;;17.70;99.30;;;;;;5014507;28;20038;-78
2022/07/16 07:12:17;;;;;;;3.03;1.60;;;17.90;99.30;;;;;;5014408;28;20630;-78
2022/07/16 07:14:43;;;;;;;3.80;1.65;;;18.00;99.00;;;;;;5014979;28;20033;-77
2022/07/16 07:17:09;;;;;;;5.88;1.70;;;17.80;98.60;;;;;;5014439;28;20092;-76
2022/07/16 07:19:35;;;;;;;3.78;1.30;;;17.80;98.60;;;;;;5014200;28;20092;-78
2022/07/16 07:22:01;;;;;;;2.03;1.30;;;18.00;98.40;;;;;;5013933;28;20109;-77
2022/07/16 07:24:26;;;;;;;2.55;1.27;;;18.00;98.10;;;;;;5014093;28;20033;-74
2022/07/16 07:26:52;;;;;;;3.67;1.65;;;18.00;97.70;;;;;;5013957;28;20356;-75
2022/07/16 07:29:18;;;;;;;2.78;1.20;;;18.10;97.50;;;;;;5014454;28;20030;-75
2022/07/16 07:31:43;;;;;;;4.57;1.70;;;18.20;97.30;;;;;;5014109;28;20120;-77
2022/07/16 07:34:09;;;;;;;2.58;1.40;;;18.30;97.00;;;;;;5013549;28;20112;-76
2022/07/16 07:36:35;;;;;;;3.20;1.20;;;18.40;97.10;;;;;;5014053;28;20490;-77
2022/07/16 07:39:00;;;;;;;3.03;1.45;;;18.40;97.10;;;;;;5012885;28;20045;-76
2022/07/16 07:41:26;;;;;;;3.67;1.52;;;18.50;97.20;;;;;;5014113;28;20026;-77
2022/07/16 07:43:52;;;;;;;4.38;1.60;;;18.50;97.10;;;;;;5013747;28;20468;-77
2022/07/16 07:46:18;;;;;;;2.88;1.48;;;18.60;97.00;;;;;;5014043;28;20026;-78
2022/07/16 07:48:43;;;;;;;5.32;1.40;;;18.70;96.80;;;;;;5012198;28;20361;-76
2022/07/16 07:51:10;;;;;;;4.82;1.63;;;18.80;96.50;;;;;;5013982;28;20029;-77
2022/07/16 07:53:36;;;;;;;2.35;1.35;;;18.60;96.20;;;;;;5014266;28;20022;-76
2022/07/16 07:56:05;;;;;;;6.07;1.90;;;18.80;96.10;;;;;;5012404;28;20049;-77
2022/07/16 07:58:31;;;;;;;4.63;1.98;;;18.80;95.90;;;;;;5013790;28;20030;-77
2022/07/16 08:00:57;;;;;;;6.65;3.05;;;18.80;95.70;;;;;;5013397;28;20030;-79
2022/07/16 08:03:22;;;;;;;6.95;2.38;;;19.00;95.80;;;;;;5012968;28;20367;-77
2022/07/16 08:05:48;;;;;;;2.47;1.15;;;19.20;95.40;;;;;;5012520;28;20022;-79
2022/07/16 08:08:15;;;;;;;2.28;1.50;;;19.30;95.10;;;;;;5013479;28;20111;-81
2022/07/16 08:10:40;;;;;;;2.75;1.30;;;19.40;94.80;;;;;;5013597;28;20117;-80
2022/07/16 08:13:06;;;;;;;1.50;1.02;;;19.50;94.10;;;;;;5013594;28;20121;-80
2022/07/16 08:15:32;;;;;;;6.10;1.20;;;19.70;93.70;;;;;;5013439;28;20034;-82
2022/07/16 08:17:58;;;;;;;2.90;1.02;;;19.80;93.30;;;;;;5013333;28;20044;-77
2022/07/16 08:20:24;;;;;;;3.47;1.20;;;20.10;93.20;;;;;;5013255;28;20018;-78
2022/07/16 08:22:50;;;;;;;3.30;1.00;;;20.40;93.10;;;;;;5012554;28;20436;-76
2022/07/16 08:28:00;;;;;;;4.47;1.42;;;20.50;92.20;;;;;;5012840;28;20521;-75
2022/07/16 08:30:26;;;;;;;1.65;1.00;;;20.40;92.30;;;;;;5012656;28;20038;-77
2022/07/16 08:32:52;;;;;;;4.22;1.42;;;20.50;92.20;;;;;;5012537;28;20108;-76
2022/07/16 08:35:18;;;;;;;2.55;1.00;;;20.60;92.10;;;;;;5012846;28;20026;-76
2022/07/16 08:37:45;;;;;;;2.28;1.17;;;21.00;91.70;;;;;;5012464;28;20049;-78
2022/07/16 08:40:14;;;;;;;3.75;1.15;;;21.70;90.90;;;;;;5012384;28;20033;-78
2022/07/16 08:42:40;;;;;;;4.80;1.70;;;21.60;90.80;;;;;;5012418;28;20196;-76
2022/07/16 08:45:08;;;;;;;2.38;1.17;;;21.60;89.20;;;;;;5012261;28;20030;-77
2022/07/16 08:47:35;;;;;;;4.90;1.13;;;21.60;89.10;;;;;;5012871;28;20093;-79
2022/07/16 08:50:02;;;;;;;5.57;1.30;;;21.50;88.80;;;;;;5012317;28;20030;-77
2022/07/16 08:52:30;;;;;;;3.45;1.40;;;21.30;88.40;;;;;;5012317;28;20053;-77
2022/07/16 08:54:56;;;;;;;3.85;1.25;;;21.20;88.00;;;;;;5012076;28;20050;-75
2022/07/16 08:57:23;;;;;;;2.92;1.13;;;21.40;87.50;;;;;;5011868;28;20117;-75
2022/07/16 08:59:53;;;;;;;1.90;1.10;;;21.20;87.60;;;;;;5012259;28;20029;-76
2022/07/16 09:02:19;;;;;;;7.30;1.38;;;20.90;87.60;;;;;;5007698;28;20039;-76
2022/07/16 09:04:45;;;;;;;3.35;1.20;;;21.10;87.10;;;;;;5007526;28;20415;-78
2022/07/16 09:07:14;;;;;;;8.85;1.35;;;21.00;86.10;;;;;;5010961;28;20109;-76
2022/07/16 09:09:40;;;;;;;3.15;0.93;;;21.30;85.60;;;;;;5012125;28;20037;-76
2022/07/16 09:12:06;;;;;;;7.97;1.20;;;21.90;84.10;;;;;;5011778;28;20056;-75
2022/07/16 09:14:32;;;;;;;2.90;0.88;;;23.00;81.40;;;;;;5012161;28;20508;-78
2022/07/16 09:16:58;;;;;;;3.22;0.90;;;23.70;77.80;;;;;;5011855;28;20038;-78
2022/07/16 09:19:27;;;;;;;2.45;0.80;;;24.30;74.90;;;;;;5011808;28;20423;-76
2022/07/16 09:22:06;;;;;;;5.25;1.73;;;24.20;72.80;;;;;;5010644;28;20038;-78
2022/07/16 09:24:41;;;;;;;8.50;3.85;;;23.60;73.40;;;;;;5011479;28;20030;-77
2022/07/16 09:27:08;;;;;;;5.25;1.55;;;23.00;73.30;;;;;;5011485;28;20022;-79
2022/07/16 09:29:36;;;;;;;6.85;1.30;;;22.60;74.60;;;;;;5011884;28;20445;-76
2022/07/16 09:32:02;;;;;;;6.03;1.20;;;22.50;76.70;;;;;;5011373;28;20042;-78
2022/07/16 09:34:29;;;;;;;5.35;1.35;;;22.00;77.90;;;;;;5011666;28;20108;-78
2022/07/16 09:37:01;;;;;;;3.97;1.38;;;21.70;78.60;;;;;;5010073;28;20737;-77
2022/07/16 09:39:28;;;;;;;6.60;1.50;;;21.90;78.60;;;;;;5011229;28;20034;-77
2022/07/16 09:41:54;;;;;;;6.05;1.05;;;22.10;78.60;;;;;;5011023;28;20022;-75
2022/07/16 09:44:24;;;;;;;4.38;1.00;;;22.20;76.50;;;;;;5010675;28;20022;-79
2022/07/16 09:47:07;;;;;;;2.63;0.82;;;22.20;74.70;;;;;;5011136;28;20049;-77
2022/07/16 09:49:36;;;;;;;4.75;1.58;;;22.30;73.80;;;;;;5011113;28;20040;-75
2022/07/16 09:52:04;;;;;;;7.22;1.25;;;22.80;74.80;;;;;;5011176;28;20092;-79
2022/07/16 09:54:35;;;;;;;9.38;1.15;;;23.10;72.80;;;;;;5011404;28;20052;-85
2022/07/16 09:57:18;;;;;;;3.53;0.77;;;23.40;71.30;;;;;;5010585;28;20424;-81
2022/07/16 09:59:46;;;;;;;3.85;0.80;;;23.60;71.30;;;;;;5011499;28;20022;-81
2022/07/16 10:02:12;;;;;;;10.90;1.38;;;23.50;69.40;;;;;;5011230;28;20088;-76
2022/07/16 10:04:38;;;;;;;7.82;1.58;;;23.30;71.10;;;;;;5010555;28;20022;-75
2022/07/16 10:07:05;;;;;;;8.00;1.25;;;22.60;70.10;;;;;;5009693;28;20105;-76
2022/07/16 10:09:31;;;;;;;7.40;1.75;;;22.60;71.40;;;;;;5010711;28;20029;-78
2022/07/16 10:12:01;;;;;;;3.20;1.08;;;22.10;67.00;;;;;;5010230;28;20401;-78
2022/07/16 10:14:27;;;;;;;4.88;1.10;;;22.40;67.70;;;;;;5011317;28;20467;-77
2022/07/16 10:16:59;;;;;;;6.97;0.98;;;22.80;67.50;;;;;;5011015;28;20045;-77
2022/07/16 10:19:36;;;;;;;7.22;1.02;;;23.00;66.30;;;;;;5011271;28;20042;-78
2022/07/16 10:22:12;;;;;;;3.00;1.15;;;23.10;66.40;;;;;;5010922;28;20058;-76
2022/07/16 10:24:53;;;;;;;9.95;0.98;;;23.20;66.50;;;;;;5011154;28;20041;-82
2022/07/16 10:27:24;;;;;;;3.47;0.93;;;23.10;66.40;;;;;;5011217;28;20441;-77
2022/07/16 10:30:07;;;;;;;4.50;1.13;;;23.10;65.00;;;;;;5011380;28;20113;-75
2022/07/16 10:33:02;;;;;;;2.67;0.73;;;22.80;64.40;;;;;;5011086;28;20046;-78
2022/07/16 10:35:49;;;;;;;7.28;1.05;;;22.60;63.00;;;;;;5007101;28;20445;-77
2022/07/16 10:38:27;;;;;;;2.72;0.65;;;22.90;63.20;;;;;;5011039;28;20033;-77
2022/07/16 10:41:15;;;;;;;4.10;1.33;;;22.90;62.50;;;;;;5010690;28;20113;-78
2022/07/16 10:43:42;;;;;;;8.38;1.48;;;22.80;59.70;;;;;;5010884;28;20475;-77
2022/07/16 10:46:10;;;;;;;3.40;1.13;;;23.30;61.60;;;;;;4993527;28;20348;-78
2022/07/16 10:48:38;;;;;;;7.35;2.08;;;23.20;59.90;;;;;;5010887;28;20038;-83
2022/07/16 10:51:16;;;;;;;3.65;0.93;;;23.00;59.00;;;;;;5010855;28;20491;-78
2022/07/16 10:54:02;;;;;;;3.92;0.80;;;22.90;58.10;;;;;;5011029;28;20017;-77
2022/07/16 10:56:48;;;;;;;2.25;0.70;;;22.90;58.40;;;;;;5010997;28;20191;-75
2022/07/16 10:59:16;;;;;;;3.15;0.70;;;22.80;57.20;;;;;;5011018;28;20084;-79
2022/07/16 11:01:44;;;;;;;6.03;1.20;;;22.70;56.00;;;;;;5010539;28;20121;-77
2022/07/16 11:04:11;;;;;;;2.50;0.80;;;22.90;56.90;;;;;;5010359;28;20129;-76
2022/07/16 11:06:39;;;;;;;2.58;1.52;;;23.10;57.00;;;;;;5009387;28;20117;-71
2022/07/16 11:09:06;;;;;;;;;;;23.10;57.60;;;;;;5010432;28;20026;-71
2022/07/16 11:11:37;;;;;;;5.47;1.15;;;23.20;59.50;;;;;;5009410;28;20020;-74
2022/07/16 11:14:04;;;;;;;2.40;0.82;;;23.10;60.00;;;;;;5010727;28;20093;-75
2022/07/16 11:16:30;;;;;;;4.30;1.15;;;23.20;60.60;;;;;;5010325;28;20034;-75
2022/07/16 11:18:59;;;;;;;5.38;1.30;;;23.40;60.70;;;;;;5010390;28;20034;-75
2022/07/16 11:21:25;;;;;;;9.13;1.67;;;23.40;59.70;;;;;;5010121;28;20030;-75
2022/07/16 11:23:56;;;;;;;3.00;0.93;;;23.20;59.50;;;;;;5013301;28;20449;-76
2022/07/16 11:26:23;;;;;;;8.73;1.20;;;23.20;59.30;;;;;;5009343;28;20031;-76
2022/07/16 11:28:58;;;;;;;7.72;1.00;;;23.00;59.20;;;;;;5010022;28;20129;-76
2022/07/16 11:31:32;;;;;;;3.38;1.02;;;23.00;59.40;;;;;;5012678;28;20348;-74
2022/07/16 11:34:00;;;;;;;5.18;1.38;;;23.10;59.30;;;;;;5013648;28;20085;-75
2022/07/16 11:36:30;;;;;;;;;;;23.00;58.90;;;;;;5013843;28;20037;-74
2022/07/16 11:39:16;;;;;;;8.75;1.67;;;23.00;58.00;;;;;;5013442;28;20137;-76
2022/07/16 11:41:45;;;;;;;5.90;1.08;;;22.90;57.90;;;;;;5013794;28;20026;-75
2022/07/16 11:44:21;;;;;;;9.73;1.20;;;22.80;59.00;;;;;;5014070;28;20165;-75
2022/07/16 11:46:48;;;;;;;7.03;1.50;;;22.70;59.30;;;;;;5013795;28;20026;-75
2022/07/16 11:49:41;;;;;;;4.28;1.13;;;22.60;59.00;;;;;;5013481;28;20030;-75
2022/07/16 11:52:26;;;;;;;7.03;1.85;;;22.60;59.30;;;;;;5010978;28;20133;-76
2022/07/16 11:54:56;;;;;;;7.53;2.15;;;22.60;59.80;;;;;;5013470;28;20054;-77
2022/07/16 11:57:22;;;;;;;5.80;1.23;;;22.50;61.50;;;;;;5013115;28;20041;-73
2022/07/16 11:59:52;;;;;;;14.15;2.25;;;22.70;61.80;;;;;;5013359;28;20076;-80
2022/07/16 12:02:23;;;;;;;5.47;1.13;;;23.10;69.30;;;;;;5013227;28;20041;-79
2022/07/16 12:04:51;;;;;;;2.65;1.05;;;23.20;61.60;;;;;;5013122;28;20026;-79
2022/07/16 12:07:30;;;;;;;5.85;1.50;;;22.80;60.50;;;;;;5013241;28;20080;-79
2022/07/16 12:10:02;;;;;;;3.13;1.00;;;22.40;59.00;;;;;;5013141;28;20064;-77
2022/07/16 12:12:31;;;;;;;6.00;0.93;;;22.30;58.70;;;;;;5011760;28;20412;-78
2022/07/16 12:15:04;;;;;;;1.77;0.75;;;22.50;57.90;;;;;;5013169;28;20044;-80
2022/07/16 12:17:38;;;;;;;6.13;0.70;;;22.50;57.40;;;;;;5013265;28;20018;-78
2022/07/16 12:20:28;;;;;;;2.90;0.70;;;22.50;56.40;;;;;;5011805;28;20367;-77
2022/07/16 12:23:11;;;;;;;2.95;0.50;;;22.60;56.50;;;;;;5011775;28;20038;-78
2022/07/16 12:25:45;;;;;;;5.07;1.70;;;22.50;56.20;;;;;;5012554;28;20034;-77
2022/07/16 12:28:17;;;;;;;4.18;1.27;;;22.40;56.50;;;;;;5012745;28;20033;-75
2022/07/16 12:30:49;;;;;;;3.47;0.80;;;22.40;57.20;;;;;;5012574;28;20141;-77
2022/07/16 12:33:23;;;;;;;5.05;1.20;;;22.60;58.00;;;;;;5011941;28;20026;-74
2022/07/16 12:35:59;;;;;;;8.38;1.25;;;22.60;58.40;;;;;;5012728;28;20400;-69
2022/07/16 12:38:33;;;;;;;9.27;1.70;;;22.60;60.10;;;;;;5012332;28;20022;-69
2022/07/16 12:40:59;;;;;;;6.35;1.85;;;22.60;60.30;;;;;;5012166;28;20030;-68
2022/07/16 12:43:25;;;;;;;2.97;1.02;;;22.60;60.50;;;;;;5012018;28;20397;-73
2022/07/16 12:45:51;;;;;;;7.88;2.17;;;22.60;60.00;;;;;;5012041;28;20042;-72
2022/07/16 12:48:17;;;;;;;5.13;0.93;;;22.50;60.40;;;;;;5013478;28;20464;-73
2022/07/16 12:50:42;;;;;;;4.30;1.10;;;22.80;62.10;;;;;;5032809;28;20049;-72
2022/07/16 12:53:08;;;;;;;6.22;1.05;;;23.00;61.80;;;;;;5032412;28;20079;-70
2022/07/16 13:01:05;;;;;;;6.53;0.98;;;23.00;58.40;;;;;;5031965;28;20079;-73
2022/07/16 13:03:31;;;;;;;8.23;1.33;;;23.00;58.90;;;;;;5031517;28;20061;-71